Airfield :
LOGIN :

Register | Disclaimer

   EN    FR    IT 

 










Legend :    VFR   Marginal VFR   IFR   Intensive IFR   Very Intensive IFR
Visi :
Ceiling :
>= 8 km
>= 3000ft
5 to 8 km
1000 to 3000 ft
1500m to 5 km
500 to 1000 ft
800 to 1500m
200 to 500 ft
< 800m
< 200 ft
Symbols :   Thunderstorms  Fog  Heavy snow  Heavy precipitations  Wind > 20 kt
SIGMETs :     Misc.  Thunderstorms  Icing  Turbulence  Mountain Waves  Volcanic Ashes







- Airport Elevation : 1487 ft
- IATA code : MUC


EDDM - München Franz Josef Strauss

CURRENT METAR :
  • 210020Z 27006KT 6000 -SN BKN007 BKN015 01/00 Q0998 R08L/290095 TEMPO 3000

EXPIRED METARs :
  • 202350Z 27005KT 230V300 9999 -RASN SCT008 OVC015 01/00 Q0998 R08L/290095 TEMPO 3000 -SN BKN008
  • 202320Z 26007KT 9999 -RASN BKN008 BKN020 01/M00 Q0997 R08L/290095 TEMPO 3000 -SN
  • 202250Z 24007KT 9999 OVC010 01/00 Q0997 R08L/290095 TEMPO 3000 -SN BKN008
  • 202220Z 21005KT 9999 SCT005 BKN012 01/00 Q0997 R08L/290095 BECMG 24005KT
  • 202150Z 17003KT 140V210 5000 -SN SCT003 BKN006 BKN014 01/M00 Q0997 RESN R08L/290095 TEMPO BKN015

TAF TAF EDDM
Valid from the 21 at 00:00 until the 22 at 06:00 UTC


202300Z 2100/2206 27008KT 8000 SCT012 BKN020
TEMPO 2100/2107 3000 -SN BKN008
TEMPO 2107/2118 30015G30KT 1200 SHSN BKN008 BKN015CB
BECMG 2117/2119 20005KT
BECMG 2122/2123 12005KT
BECMG 2202/2204 2000 -SN BKN008
TEMPO 2203/2206 1200 SN BKN004
No reported NOTAMs for that airfield.
1 SIGMET reported for the München FIR (EDMM) :
 
Severe turbulence
EDMM SIGMET 2 VALID 202116/210100 EDZM
EDMM MUNCHEN FIR SEV TURB FCST W OF E01015 FL200/245 MOV NE 15KT NC=



MET'MAP, your aeronautical weather chart ! - Copyright ORBIFLY December 2007 - Disclaimer

ORBIFLY MET'MAP TEAM :

Programming & Development : Alexandra Zaïnal
Concept & Development : Baudouin d'Aumeries
Co-Development & Prog : Marc-Olivier Méhu
Technical & hardware support : Manuel Goepfert

Contact : metmap@orbifly.com




SOURCES & CREDITS :

   NOAA